KLFK

Angelina County Airport

Lufkin, Texas, USA
METAR KLFK 191053Z AUTO 00000KT 9SM CLR 24/24 A2995 RMK AO2 SLP136 T02440239
Observed Flight Rules
Sep-19 @ 10:53 UTC (11 minutes ago) Visual Flight Rules
Visibility Clouds
9 miles
  • Clear skies
Temperatures Readings
Current 24°C / 75°F
Dewpoint 24°C / 75°F
Humidity 100%
Altimeter 29.95" Hg
Pressure 1013.6 hPa
Elevation 88
METAR KLFK 191053Z AUTO 00000KT 9SM CLR 24/24 A2995 RMK AO2 SLP136 T02440239
Observed Flight Rules
Sep-19 @ 10:53 UTC
(11 minutes ago)
VFR
Clouds
  • Clear skies
Temperature Dewpoint
24°C / 75°F 24°C / 75°F
Humidity Altimeter Pressure
100% 29.95" Hg 1013.6 hPa